sensor_id;sensor_type;location;lat;lon;timestamp;temperature;humidity
5027;DHT22;2532;52.480;13.354;2024-03-17T00:00:06;7.20;91.70
5027;DHT22;2532;52.480;13.354;2024-03-17T00:02:40;7.20;91.80
5027;DHT22;2532;52.480;13.354;2024-03-17T00:05:08;7.20;91.80
5027;DHT22;2532;52.480;13.354;2024-03-17T00:07:35;7.20;91.90
5027;DHT22;2532;52.480;13.354;2024-03-17T00:10:01;7.20;91.90
5027;DHT22;2532;52.480;13.354;2024-03-17T00:12:28;7.10;91.90
5027;DHT22;2532;52.480;13.354;2024-03-17T00:14:54;7.10;92.00
5027;DHT22;2532;52.480;13.354;2024-03-17T00:17:21;7.10;92.10
5027;DHT22;2532;52.480;13.354;2024-03-17T00:19:46;7.10;92.10
5027;DHT22;2532;52.480;13.354;2024-03-17T00:22:15;7.20;92.10
5027;DHT22;2532;52.480;13.354;2024-03-17T00:24:42;7.20;92.10
5027;DHT22;2532;52.480;13.354;2024-03-17T00:27:10;7.20;92.10
5027;DHT22;2532;52.480;13.354;2024-03-17T00:29:37;7.10;92.10
5027;DHT22;2532;52.480;13.354;2024-03-17T00:32:05;7.10;92.10
5027;DHT22;2532;52.480;13.354;2024-03-17T00:34:31;7.10;92.10
5027;DHT22;2532;52.480;13.354;2024-03-17T00:36:58;7.00;92.20
5027;DHT22;2532;52.480;13.354;2024-03-17T00:39:26;7.10;92.30
5027;DHT22;2532;52.480;13.354;2024-03-17T00:41:53;7.00;92.30
5027;DHT22;2532;52.480;13.354;2024-03-17T00:44:19;7.00;92.30
5027;DHT22;2532;52.480;13.354;2024-03-17T00:46:49;7.00;92.30
5027;DHT22;2532;52.480;13.354;2024-03-17T00:49:17;7.00;92.40
5027;DHT22;2532;52.480;13.354;2024-03-17T00:51:44;6.90;92.40
5027;DHT22;2532;52.480;13.354;2024-03-17T00:54:10;6.90;92.50
5027;DHT22;2532;52.480;13.354;2024-03-17T00:56:39;6.90;92.50
5027;DHT22;2532;52.480;13.354;2024-03-17T00:59:05;6.90;92.50
5027;DHT22;2532;52.480;13.354;2024-03-17T01:01:32;6.80;92.50
5027;DHT22;2532;52.480;13.354;2024-03-17T01:03:58;6.80;92.50
5027;DHT22;2532;52.480;13.354;2024-03-17T01:06:24;6.80;92.50
5027;DHT22;2532;52.480;13.354;2024-03-17T01:08:50;6.80;92.50
5027;DHT22;2532;52.480;13.354;2024-03-17T01:11:18;6.80;92.60
5027;DHT22;2532;52.480;13.354;2024-03-17T01:13:46;6.80;92.60
5027;DHT22;2532;52.480;13.354;2024-03-17T01:16:13;6.80;92.70
5027;DHT22;2532;52.480;13.354;2024-03-17T01:18:39;6.80;92.70
5027;DHT22;2532;52.480;13.354;2024-03-17T01:21:06;6.80;92.70
5027;DHT22;2532;52.480;13.354;2024-03-17T01:23:32;6.80;92.80
5027;DHT22;2532;52.480;13.354;2024-03-17T01:25:59;6.70;92.80
5027;DHT22;2532;52.480;13.354;2024-03-17T01:28:25;6.80;92.90
5027;DHT22;2532;52.480;13.354;2024-03-17T01:30:54;6.70;92.90
5027;DHT22;2532;52.480;13.354;2024-03-17T01:33:19;6.80;92.90
5027;DHT22;2532;52.480;13.354;2024-03-17T01:35:48;6.70;92.90
5027;DHT22;2532;52.480;13.354;2024-03-17T01:38:15;6.70;92.90
5027;DHT22;2532;52.480;13.354;2024-03-17T01:40:41;6.70;92.90
5027;DHT22;2532;52.480;13.354;2024-03-17T01:43:10;6.70;92.90
5027;DHT22;2532;52.480;13.354;2024-03-17T01:45:36;6.70;92.90
5027;DHT22;2532;52.480;13.354;2024-03-17T01:48:15;6.60;93.00
5027;DHT22;2532;52.480;13.354;2024-03-17T01:50:42;6.60;93.10
5027;DHT22;2532;52.480;13.354;2024-03-17T01:53:11;6.50;93.10
5027;DHT22;2532;52.480;13.354;2024-03-17T01:55:43;6.50;93.20
5027;DHT22;2532;52.480;13.354;2024-03-17T01:58:10;6.50;93.20
5027;DHT22;2532;52.480;13.354;2024-03-17T02:00:37;6.40;93.20
5027;DHT22;2532;52.480;13.354;2024-03-17T02:03:05;6.40;93.20
5027;DHT22;2532;52.480;13.354;2024-03-17T02:05:34;6.40;93.30
5027;DHT22;2532;52.480;13.354;2024-03-17T02:08:00;6.40;93.30
5027;DHT22;2532;52.480;13.354;2024-03-17T02:10:27;6.40;93.40
5027;DHT22;2532;52.480;13.354;2024-03-17T02:12:53;6.40;93.40
5027;DHT22;2532;52.480;13.354;2024-03-17T02:15:22;6.40;93.40
5027;DHT22;2532;52.480;13.354;2024-03-17T02:17:48;6.30;93.30
5027;DHT22;2532;52.480;13.354;2024-03-17T02:20:19;6.40;93.30
5027;DHT22;2532;52.480;13.354;2024-03-17T02:22:46;6.40;93.30
5027;DHT22;2532;52.480;13.354;2024-03-17T02:25:13;6.30;93.20
5027;DHT22;2532;52.480;13.354;2024-03-17T02:27:39;6.30;93.20
5027;DHT22;2532;52.480;13.354;2024-03-17T02:30:07;6.20;93.10
5027;DHT22;2532;52.480;13.354;2024-03-17T02:32:34;6.20;93.20
5027;DHT22;2532;52.480;13.354;2024-03-17T02:35:02;6.20;93.30
5027;DHT22;2532;52.480;13.354;2024-03-17T02:37:30;6.10;93.40
5027;DHT22;2532;52.480;13.354;2024-03-17T02:39:58;6.00;93.40
5027;DHT22;2532;52.480;13.354;2024-03-17T02:42:24;6.00;93.40
5027;DHT22;2532;52.480;13.354;2024-03-17T02:44:51;5.90;93.40
5027;DHT22;2532;52.480;13.354;2024-03-17T02:47:17;5.80;93.50
5027;DHT22;2532;52.480;13.354;2024-03-17T02:49:45;5.80;93.60
5027;DHT22;2532;52.480;13.354;2024-03-17T02:52:15;5.80;93.70
5027;DHT22;2532;52.480;13.354;2024-03-17T02:54:44;5.80;93.70
5027;DHT22;2532;52.480;13.354;2024-03-17T02:57:15;5.80;93.80
5027;DHT22;2532;52.480;13.354;2024-03-17T02:59:44;5.80;93.90
5027;DHT22;2532;52.480;13.354;2024-03-17T03:02:12;5.70;93.80
5027;DHT22;2532;52.480;13.354;2024-03-17T03:04:39;5.70;93.90
5027;DHT22;2532;52.480;13.354;2024-03-17T03:07:05;5.70;94.00
5027;DHT22;2532;52.480;13.354;2024-03-17T03:09:32;5.70;94.00
5027;DHT22;2532;52.480;13.354;2024-03-17T03:12:00;5.70;94.10
5027;DHT22;2532;52.480;13.354;2024-03-17T03:14:29;5.70;94.10
5027;DHT22;2532;52.480;13.354;2024-03-17T03:16:57;5.70;94.10
5027;DHT22;2532;52.480;13.354;2024-03-17T03:19:29;5.70;94.20
5027;DHT22;2532;52.480;13.354;2024-03-17T03:21:56;5.70;94.20
5027;DHT22;2532;52.480;13.354;2024-03-17T03:24:26;5.60;94.20
5027;DHT22;2532;52.480;13.354;2024-03-17T03:26:53;5.60;94.30
5027;DHT22;2532;52.480;13.354;2024-03-17T03:29:23;5.50;94.40
5027;DHT22;2532;52.480;13.354;2024-03-17T03:31:56;5.50;94.50
5027;DHT22;2532;52.480;13.354;2024-03-17T03:34:29;5.50;94.60
5027;DHT22;2532;52.480;13.354;2024-03-17T03:36:56;5.50;94.70
5027;DHT22;2532;52.480;13.354;2024-03-17T03:39:23;5.40;94.70
5027;DHT22;2532;52.480;13.354;2024-03-17T03:41:54;5.40;94.80
5027;DHT22;2532;52.480;13.354;2024-03-17T03:44:21;5.40;94.90
5027;DHT22;2532;52.480;13.354;2024-03-17T03:46:48;5.40;94.90
5027;DHT22;2532;52.480;13.354;2024-03-17T03:49:17;5.40;95.00
5027;DHT22;2532;52.480;13.354;2024-03-17T03:51:44;5.30;95.10
5027;DHT22;2532;52.480;13.354;2024-03-17T03:54:11;5.30;95.10
5027;DHT22;2532;52.480;13.354;2024-03-17T03:56:38;5.30;95.20
5027;DHT22;2532;52.480;13.354;2024-03-17T03:59:05;5.30;95.30
5027;DHT22;2532;52.480;13.354;2024-03-17T04:01:32;5.20;95.40
5027;DHT22;2532;52.480;13.354;2024-03-17T04:03:59;5.30;95.50
5027;DHT22;2532;52.480;13.354;2024-03-17T04:06:27;5.20;95.50
5027;DHT22;2532;52.480;13.354;2024-03-17T04:08:54;5.20;95.60
5027;DHT22;2532;52.480;13.354;2024-03-17T04:11:21;5.20;95.70
5027;DHT22;2532;52.480;13.354;2024-03-17T04:13:48;5.20;95.80
5027;DHT22;2532;52.480;13.354;2024-03-17T04:16:16;5.10;95.80
5027;DHT22;2532;52.480;13.354;2024-03-17T04:18:47;5.10;95.90
5027;DHT22;2532;52.480;13.354;2024-03-17T04:21:14;5.10;96.00
5027;DHT22;2532;52.480;13.354;2024-03-17T04:23:43;5.00;96.10
5027;DHT22;2532;52.480;13.354;2024-03-17T04:26:10;5.00;96.20
5027;DHT22;2532;52.480;13.354;2024-03-17T04:28:37;4.90;96.20
5027;DHT22;2532;52.480;13.354;2024-03-17T04:31:04;4.90;96.40
5027;DHT22;2532;52.480;13.354;2024-03-17T04:33:32;4.90;96.50
5027;DHT22;2532;52.480;13.354;2024-03-17T04:35:59;4.80;96.60
5027;DHT22;2532;52.480;13.354;2024-03-17T04:38:28;4.80;96.70
5027;DHT22;2532;52.480;13.354;2024-03-17T04:40:56;4.80;96.80
5027;DHT22;2532;52.480;13.354;2024-03-17T04:43:31;4.80;96.90
5027;DHT22;2532;52.480;13.354;2024-03-17T04:46:03;4.80;97.00
5027;DHT22;2532;52.480;13.354;2024-03-17T04:48:31;4.80;97.00
5027;DHT22;2532;52.480;13.354;2024-03-17T04:50:57;4.80;97.10
5027;DHT22;2532;52.480;13.354;2024-03-17T04:53:25;4.70;97.20
5027;DHT22;2532;52.480;13.354;2024-03-17T04:56:04;4.80;97.30
5027;DHT22;2532;52.480;13.354;2024-03-17T04:58:31;4.80;97.40
5027;DHT22;2532;52.480;13.354;2024-03-17T05:01:03;4.80;97.40
5027;DHT22;2532;52.480;13.354;2024-03-17T05:03:30;4.80;97.50
5027;DHT22;2532;52.480;13.354;2024-03-17T05:06:00;4.90;97.50
5027;DHT22;2532;52.480;13.354;2024-03-17T05:08:28;4.80;97.40
5027;DHT22;2532;52.480;13.354;2024-03-17T05:10:56;4.90;97.50
5027;DHT22;2532;52.480;13.354;2024-03-17T05:13:25;4.90;97.50
5027;DHT22;2532;52.480;13.354;2024-03-17T05:15:52;4.90;97.50
5027;DHT22;2532;52.480;13.354;2024-03-17T05:18:19;5.00;97.50
5027;DHT22;2532;52.480;13.354;2024-03-17T05:20:56;4.90;97.40
5027;DHT22;2532;52.480;13.354;2024-03-17T05:23:25;4.90;97.50
5027;DHT22;2532;52.480;13.354;2024-03-17T05:25:52;4.90;97.50
5027;DHT22;2532;52.480;13.354;2024-03-17T05:28:19;4.90;97.50
5027;DHT22;2532;52.480;13.354;2024-03-17T05:30:47;4.90;97.50
5027;DHT22;2532;52.480;13.354;2024-03-17T05:33:16;4.90;97.60
5027;DHT22;2532;52.480;13.354;2024-03-17T05:35:48;4.90;97.60
5027;DHT22;2532;52.480;13.354;2024-03-17T05:38:16;4.90;97.70
5027;DHT22;2532;52.480;13.354;2024-03-17T05:40:52;4.90;97.70
5027;DHT22;2532;52.480;13.354;2024-03-17T05:43:20;4.90;97.70
5027;DHT22;2532;52.480;13.354;2024-03-17T05:45:48;4.90;97.70
5027;DHT22;2532;52.480;13.354;2024-03-17T05:48:17;4.90;97.70
5027;DHT22;2532;52.480;13.354;2024-03-17T05:50:46;4.90;97.70
5027;DHT22;2532;52.480;13.354;2024-03-17T05:53:13;4.90;97.70
5027;DHT22;2532;52.480;13.354;2024-03-17T05:55:40;5.00;97.70
5027;DHT22;2532;52.480;13.354;2024-03-17T05:58:08;5.00;97.70
5027;DHT22;2532;52.480;13.354;2024-03-17T06:00:35;4.90;97.70
5027;DHT22;2532;52.480;13.354;2024-03-17T06:03:05;4.90;97.70
5027;DHT22;2532;52.480;13.354;2024-03-17T06:05:33;4.90;97.80
5027;DHT22;2532;52.480;13.354;2024-03-17T06:08:00;5.00;97.90
5027;DHT22;2532;52.480;13.354;2024-03-17T06:10:28;5.00;97.90
5027;DHT22;2532;52.480;13.354;2024-03-17T06:12:55;5.00;97.90
5027;DHT22;2532;52.480;13.354;2024-03-17T06:15:23;5.00;97.90
5027;DHT22;2532;52.480;13.354;2024-03-17T06:17:50;5.00;98.00
5027;DHT22;2532;52.480;13.354;2024-03-17T06:20:20;5.00;98.00
5027;DHT22;2532;52.480;13.354;2024-03-17T06:22:47;5.00;98.10
5027;DHT22;2532;52.480;13.354;2024-03-17T06:25:14;5.00;98.20
5027;DHT22;2532;52.480;13.354;2024-03-17T06:27:41;5.00;98.40
5027;DHT22;2532;52.480;13.354;2024-03-17T06:30:12;5.00;98.60
5027;DHT22;2532;52.480;13.354;2024-03-17T06:32:40;5.10;98.70
5027;DHT22;2532;52.480;13.354;2024-03-17T06:35:08;5.10;98.70
5027;DHT22;2532;52.480;13.354;2024-03-17T06:37:36;5.10;98.30
5027;DHT22;2532;52.480;13.354;2024-03-17T06:40:04;5.20;98.30
5027;DHT22;2532;52.480;13.354;2024-03-17T06:42:32;5.20;98.40
5027;DHT22;2532;52.480;13.354;2024-03-17T06:44:59;5.30;98.30
5027;DHT22;2532;52.480;13.354;2024-03-17T06:47:26;5.40;98.20
5027;DHT22;2532;52.480;13.354;2024-03-17T06:49:53;5.40;98.00
5027;DHT22;2532;52.480;13.354;2024-03-17T06:52:21;5.50;98.00
5027;DHT22;2532;52.480;13.354;2024-03-17T06:54:49;5.50;97.70
5027;DHT22;2532;52.480;13.354;2024-03-17T06:57:16;5.60;97.60
5027;DHT22;2532;52.480;13.354;2024-03-17T06:59:43;5.60;97.30
5027;DHT22;2532;52.480;13.354;2024-03-17T07:02:11;5.60;97.10
5027;DHT22;2532;52.480;13.354;2024-03-17T07:04:43;5.70;97.00
5027;DHT22;2532;52.480;13.354;2024-03-17T07:07:10;5.70;97.00
5027;DHT22;2532;52.480;13.354;2024-03-17T07:09:37;5.80;96.90
5027;DHT22;2532;52.480;13.354;2024-03-17T07:12:07;5.80;96.70
5027;DHT22;2532;52.480;13.354;2024-03-17T07:14:35;5.90;96.60
5027;DHT22;2532;52.480;13.354;2024-03-17T07:17:02;6.00;96.50
5027;DHT22;2532;52.480;13.354;2024-03-17T07:19:30;6.00;96.40
5027;DHT22;2532;52.480;13.354;2024-03-17T07:21:58;6.00;96.20
5027;DHT22;2532;52.480;13.354;2024-03-17T07:24:27;6.10;96.10
5027;DHT22;2532;52.480;13.354;2024-03-17T07:26:55;6.20;96.10
5027;DHT22;2532;52.480;13.354;2024-03-17T07:29:24;6.20;95.90
5027;DHT22;2532;52.480;13.354;2024-03-17T07:31:51;6.30;95.90
5027;DHT22;2532;52.480;13.354;2024-03-17T07:34:18;6.40;95.80
5027;DHT22;2532;52.480;13.354;2024-03-17T07:36:47;6.40;95.80
5027;DHT22;2532;52.480;13.354;2024-03-17T07:39:14;6.50;95.80
5027;DHT22;2532;52.480;13.354;2024-03-17T07:41:41;6.50;95.60
5027;DHT22;2532;52.480;13.354;2024-03-17T07:44:11;6.60;95.60
5027;DHT22;2532;52.480;13.354;2024-03-17T07:46:39;6.60;95.80
5027;DHT22;2532;52.480;13.354;2024-03-17T07:49:06;6.70;95.70
5027;DHT22;2532;52.480;13.354;2024-03-17T07:51:34;6.80;95.60
5027;DHT22;2532;52.480;13.354;2024-03-17T07:54:01;6.80;95.40
5027;DHT22;2532;52.480;13.354;2024-03-17T07:56:31;6.90;94.90
5027;DHT22;2532;52.480;13.354;2024-03-17T07:58:58;7.00;94.70
5027;DHT22;2532;52.480;13.354;2024-03-17T08:01:28;7.00;94.30
5027;DHT22;2532;52.480;13.354;2024-03-17T08:03:56;7.00;93.90
5027;DHT22;2532;52.480;13.354;2024-03-17T08:06:25;7.00;93.60
5027;DHT22;2532;52.480;13.354;2024-03-17T08:09:03;7.00;93.80
5027;DHT22;2532;52.480;13.354;2024-03-17T08:11:30;7.10;93.80
5027;DHT22;2532;52.480;13.354;2024-03-17T08:13:57;7.10;93.20
5027;DHT22;2532;52.480;13.354;2024-03-17T08:16:24;7.10;93.10
5027;DHT22;2532;52.480;13.354;2024-03-17T08:18:51;7.10;92.90
5027;DHT22;2532;52.480;13.354;2024-03-17T08:21:19;7.10;92.90
5027;DHT22;2532;52.480;13.354;2024-03-17T08:23:46;7.10;92.90
5027;DHT22;2532;52.480;13.354;2024-03-17T08:26:13;7.20;92.90
5027;DHT22;2532;52.480;13.354;2024-03-17T08:28:40;7.20;92.80
5027;DHT22;2532;52.480;13.354;2024-03-17T08:31:07;7.20;92.80
5027;DHT22;2532;52.480;13.354;2024-03-17T08:33:34;7.20;92.90
5027;DHT22;2532;52.480;13.354;2024-03-17T08:36:03;7.20;92.60
5027;DHT22;2532;52.480;13.354;2024-03-17T08:38:37;7.30;92.80
5027;DHT22;2532;52.480;13.354;2024-03-17T08:41:06;7.30;92.70
5027;DHT22;2532;52.480;13.354;2024-03-17T08:43:33;7.40;92.60
5027;DHT22;2532;52.480;13.354;2024-03-17T08:46:01;7.50;92.20
5027;DHT22;2532;52.480;13.354;2024-03-17T08:48:35;7.60;91.70
5027;DHT22;2532;52.480;13.354;2024-03-17T08:51:06;7.60;91.30
5027;DHT22;2532;52.480;13.354;2024-03-17T08:53:35;7.50;90.90
5027;DHT22;2532;52.480;13.354;2024-03-17T08:56:03;7.60;91.20
5027;DHT22;2532;52.480;13.354;2024-03-17T08:58:32;7.60;91.30
5027;DHT22;2532;52.480;13.354;2024-03-17T09:00:58;7.60;91.30
5027;DHT22;2532;52.480;13.354;2024-03-17T09:03:29;7.60;91.00
5027;DHT22;2532;52.480;13.354;2024-03-17T09:05:56;7.60;91.10
5027;DHT22;2532;52.480;13.354;2024-03-17T09:08:24;7.60;91.10
5027;DHT22;2532;52.480;13.354;2024-03-17T09:10:55;7.60;91.10
5027;DHT22;2532;52.480;13.354;2024-03-17T09:13:23;7.70;91.00
5027;DHT22;2532;52.480;13.354;2024-03-17T09:15:53;7.80;91.20
5027;DHT22;2532;52.480;13.354;2024-03-17T09:18:20;7.90;91.00
5027;DHT22;2532;52.480;13.354;2024-03-17T09:20:58;7.90;90.60
5027;DHT22;2532;52.480;13.354;2024-03-17T09:23:25;7.90;90.70
5027;DHT22;2532;52.480;13.354;2024-03-17T09:25:59;8.00;90.70
5027;DHT22;2532;52.480;13.354;2024-03-17T09:28:26;8.00;90.40
5027;DHT22;2532;52.480;13.354;2024-03-17T09:30:53;8.10;90.50
5027;DHT22;2532;52.480;13.354;2024-03-17T09:33:20;8.10;90.70
5027;DHT22;2532;52.480;13.354;2024-03-17T09:35:54;8.20;90.80
5027;DHT22;2532;52.480;13.354;2024-03-17T09:38:22;8.30;90.30
5027;DHT22;2532;52.480;13.354;2024-03-17T09:40:49;8.30;90.30
5027;DHT22;2532;52.480;13.354;2024-03-17T09:43:19;8.30;90.10
5027;DHT22;2532;52.480;13.354;2024-03-17T09:45:47;8.30;90.20
5027;DHT22;2532;52.480;13.354;2024-03-17T09:48:15;8.30;89.90
5027;DHT22;2532;52.480;13.354;2024-03-17T09:50:48;8.40;89.80
5027;DHT22;2532;52.480;13.354;2024-03-17T09:53:16;8.50;90.00
5027;DHT22;2532;52.480;13.354;2024-03-17T09:55:44;8.60;89.80
5027;DHT22;2532;52.480;13.354;2024-03-17T09:58:15;8.60;89.40
5027;DHT22;2532;52.480;13.354;2024-03-17T10:00:44;8.60;89.60
5027;DHT22;2532;52.480;13.354;2024-03-17T10:03:12;8.50;88.60
5027;DHT22;2532;52.480;13.354;2024-03-17T10:05:39;8.50;88.20
5027;DHT22;2532;52.480;13.354;2024-03-17T10:08:06;8.40;87.70
5027;DHT22;2532;52.480;13.354;2024-03-17T10:10:52;8.40;87.70
5027;DHT22;2532;52.480;13.354;2024-03-17T10:13:20;8.40;88.80
5027;DHT22;2532;52.480;13.354;2024-03-17T10:15:50;8.40;88.10
5027;DHT22;2532;52.480;13.354;2024-03-17T10:18:21;8.50;88.10
5027;DHT22;2532;52.480;13.354;2024-03-17T10:20:49;8.50;88.10
5027;DHT22;2532;52.480;13.354;2024-03-17T10:23:20;8.50;88.30
5027;DHT22;2532;52.480;13.354;2024-03-17T10:25:47;8.60;87.90
5027;DHT22;2532;52.480;13.354;2024-03-17T10:28:15;8.70;87.70
5027;DHT22;2532;52.480;13.354;2024-03-17T10:30:42;8.70;87.60
5027;DHT22;2532;52.480;13.354;2024-03-17T10:33:25;8.70;88.10
5027;DHT22;2532;52.480;13.354;2024-03-17T10:35:58;8.80;87.40
5027;DHT22;2532;52.480;13.354;2024-03-17T10:38:26;8.90;87.50
5027;DHT22;2532;52.480;13.354;2024-03-17T10:40:54;9.00;87.50
5027;DHT22;2532;52.480;13.354;2024-03-17T10:43:21;9.10;86.40
5027;DHT22;2532;52.480;13.354;2024-03-17T10:45:52;9.20;86.40
5027;DHT22;2532;52.480;13.354;2024-03-17T10:48:21;9.30;85.70
5027;DHT22;2532;52.480;13.354;2024-03-17T10:50:55;9.40;84.70
5027;DHT22;2532;52.480;13.354;2024-03-17T10:53:25;9.40;84.20
5027;DHT22;2532;52.480;13.354;2024-03-17T10:56:01;9.50;84.30
5027;DHT22;2532;52.480;13.354;2024-03-17T10:58:34;9.50;84.30
5027;DHT22;2532;52.480;13.354;2024-03-17T11:01:02;9.50;84.40
5027;DHT22;2532;52.480;13.354;2024-03-17T11:03:31;9.50;84.10
5027;DHT22;2532;52.480;13.354;2024-03-17T11:06:01;9.40;83.80
5027;DHT22;2532;52.480;13.354;2024-03-17T11:08:30;9.40;84.20
5027;DHT22;2532;52.480;13.354;2024-03-17T11:10:58;9.30;84.20
5027;DHT22;2532;52.480;13.354;2024-03-17T11:13:26;9.20;84.20
5027;DHT22;2532;52.480;13.354;2024-03-17T11:15:55;9.10;84.00
5027;DHT22;2532;52.480;13.354;2024-03-17T11:18:37;9.00;84.00
5027;DHT22;2532;52.480;13.354;2024-03-17T11:21:19;9.00;84.60
5027;DHT22;2532;52.480;13.354;2024-03-17T11:23:58;9.10;85.20
5027;DHT22;2532;52.480;13.354;2024-03-17T11:26:31;9.10;84.80
5027;DHT22;2532;52.480;13.354;2024-03-17T11:28:59;9.20;84.80
5027;DHT22;2532;52.480;13.354;2024-03-17T11:31:36;9.40;83.70
5027;DHT22;2532;52.480;13.354;2024-03-17T11:34:04;9.50;82.00
5027;DHT22;2532;52.480;13.354;2024-03-17T11:36:38;9.60;80.80
5027;DHT22;2532;52.480;13.354;2024-03-17T11:39:04;9.70;81.00
5027;DHT22;2532;52.480;13.354;2024-03-17T11:41:37;9.70;81.00
5027;DHT22;2532;52.480;13.354;2024-03-17T11:44:23;9.70;81.30
5027;DHT22;2532;52.480;13.354;2024-03-17T11:46:53;9.60;81.00
5027;DHT22;2532;52.480;13.354;2024-03-17T11:49:25;9.60;80.20
5027;DHT22;2532;52.480;13.354;2024-03-17T11:51:54;9.60;79.40
5027;DHT22;2532;52.480;13.354;2024-03-17T11:54:22;9.60;79.70
5027;DHT22;2532;52.480;13.354;2024-03-17T11:56:51;9.60;80.10
5027;DHT22;2532;52.480;13.354;2024-03-17T11:59:18;9.60;80.50
5027;DHT22;2532;52.480;13.354;2024-03-17T12:01:46;9.60;80.80
5027;DHT22;2532;52.480;13.354;2024-03-17T12:04:13;9.60;80.90
5027;DHT22;2532;52.480;13.354;2024-03-17T12:06:45;9.60;79.80
5027;DHT22;2532;52.480;13.354;2024-03-17T12:09:18;9.50;79.60
5027;DHT22;2532;52.480;13.354;2024-03-17T12:11:47;9.60;79.50
5027;DHT22;2532;52.480;13.354;2024-03-17T12:14:18;9.70;79.60
5027;DHT22;2532;52.480;13.354;2024-03-17T12:16:50;9.80;79.10
5027;DHT22;2532;52.480;13.354;2024-03-17T12:19:17;9.90;78.00
5027;DHT22;2532;52.480;13.354;2024-03-17T12:21:45;10.00;76.40
5027;DHT22;2532;52.480;13.354;2024-03-17T12:24:17;10.10;76.00
5027;DHT22;2532;52.480;13.354;2024-03-17T12:26:44;10.20;76.00
5027;DHT22;2532;52.480;13.354;2024-03-17T12:29:22;10.30;74.50
5027;DHT22;2532;52.480;13.354;2024-03-17T12:31:50;10.20;72.80
5027;DHT22;2532;52.480;13.354;2024-03-17T12:34:18;10.20;72.60
5027;DHT22;2532;52.480;13.354;2024-03-17T12:36:44;10.20;71.40
5027;DHT22;2532;52.480;13.354;2024-03-17T12:39:19;10.10;71.70
5027;DHT22;2532;52.480;13.354;2024-03-17T12:41:45;10.20;72.60
5027;DHT22;2532;52.480;13.354;2024-03-17T12:44:22;10.10;72.60
5027;DHT22;2532;52.480;13.354;2024-03-17T12:46:48;10.00;72.70
5027;DHT22;2532;52.480;13.354;2024-03-17T12:49:21;10.00;73.40
5027;DHT22;2532;52.480;13.354;2024-03-17T12:51:47;10.10;74.60
5027;DHT22;2532;52.480;13.354;2024-03-17T12:54:20;10.00;73.80
5027;DHT22;2532;52.480;13.354;2024-03-17T12:56:46;10.00;73.70
5027;DHT22;2532;52.480;13.354;2024-03-17T12:59:40;10.00;73.90
5027;DHT22;2532;52.480;13.354;2024-03-17T13:02:25;10.10;74.00
5027;DHT22;2532;52.480;13.354;2024-03-17T13:05:15;10.10;73.60
5027;DHT22;2532;52.480;13.354;2024-03-17T13:07:46;10.10;74.00
5027;DHT22;2532;52.480;13.354;2024-03-17T13:10:16;10.10;73.60
5027;DHT22;2532;52.480;13.354;2024-03-17T13:12:43;10.10;72.60
5027;DHT22;2532;52.480;13.354;2024-03-17T13:15:12;10.10;72.00
5027;DHT22;2532;52.480;13.354;2024-03-17T13:17:40;10.10;71.90
5027;DHT22;2532;52.480;13.354;2024-03-17T13:20:12;10.00;71.80
5027;DHT22;2532;52.480;13.354;2024-03-17T13:22:41;10.10;72.10
5027;DHT22;2532;52.480;13.354;2024-03-17T13:25:13;10.10;71.30
5027;DHT22;2532;52.480;13.354;2024-03-17T13:27:42;10.10;71.20
5027;DHT22;2532;52.480;13.354;2024-03-17T13:30:09;10.20;71.50
5027;DHT22;2532;52.480;13.354;2024-03-17T13:32:36;10.20;71.80
5027;DHT22;2532;52.480;13.354;2024-03-17T13:35:05;10.30;72.50
5027;DHT22;2532;52.480;13.354;2024-03-17T13:37:34;10.30;72.80
5027;DHT22;2532;52.480;13.354;2024-03-17T13:40:02;10.20;71.40
5027;DHT22;2532;52.480;13.354;2024-03-17T13:42:33;10.20;72.60
5027;DHT22;2532;52.480;13.354;2024-03-17T13:45:02;10.20;72.20
5027;DHT22;2532;52.480;13.354;2024-03-17T13:47:29;10.20;71.90
5027;DHT22;2532;52.480;13.354;2024-03-17T13:49:56;10.30;72.00
5027;DHT22;2532;52.480;13.354;2024-03-17T13:52:23;10.30;71.90
5027;DHT22;2532;52.480;13.354;2024-03-17T13:54:51;10.40;71.80
5027;DHT22;2532;52.480;13.354;2024-03-17T13:57:18;10.50;72.00
5027;DHT22;2532;52.480;13.354;2024-03-17T13:59:45;10.60;71.60
5027;DHT22;2532;52.480;13.354;2024-03-17T14:02:15;10.70;71.50
5027;DHT22;2532;52.480;13.354;2024-03-17T14:04:42;10.80;70.70
5027;DHT22;2532;52.480;13.354;2024-03-17T14:07:10;10.90;70.80
5027;DHT22;2532;52.480;13.354;2024-03-17T14:09:37;10.80;70.00
5027;DHT22;2532;52.480;13.354;2024-03-17T14:12:05;10.80;68.40
5027;DHT22;2532;52.480;13.354;2024-03-17T14:14:32;10.70;68.40
5027;DHT22;2532;52.480;13.354;2024-03-17T14:16:59;10.70;68.50
5027;DHT22;2532;52.480;13.354;2024-03-17T14:19:28;10.70;69.20
5027;DHT22;2532;52.480;13.354;2024-03-17T14:21:55;10.60;69.90
5027;DHT22;2532;52.480;13.354;2024-03-17T14:24:23;10.60;70.20
5027;DHT22;2532;52.480;13.354;2024-03-17T14:26:51;10.60;70.50
5027;DHT22;2532;52.480;13.354;2024-03-17T14:29:21;10.70;70.50
5027;DHT22;2532;52.480;13.354;2024-03-17T14:31:49;10.70;69.60
5027;DHT22;2532;52.480;13.354;2024-03-17T14:34:18;10.70;69.10
5027;DHT22;2532;52.480;13.354;2024-03-17T14:36:47;10.70;69.30
5027;DHT22;2532;52.480;13.354;2024-03-17T14:39:16;10.70;69.70
5027;DHT22;2532;52.480;13.354;2024-03-17T14:41:43;10.70;69.90
5027;DHT22;2532;52.480;13.354;2024-03-17T14:44:10;10.70;69.50
5027;DHT22;2532;52.480;13.354;2024-03-17T14:46:37;10.70;69.70
5027;DHT22;2532;52.480;13.354;2024-03-17T14:49:05;10.90;70.00
5027;DHT22;2532;52.480;13.354;2024-03-17T14:51:31;11.00;69.90
5027;DHT22;2532;52.480;13.354;2024-03-17T14:54:00;11.10;69.50
5027;DHT22;2532;52.480;13.354;2024-03-17T14:56:27;11.10;69.40
5027;DHT22;2532;52.480;13.354;2024-03-17T14:58:54;11.10;69.20
5027;DHT22;2532;52.480;13.354;2024-03-17T15:01:21;11.00;70.00
5027;DHT22;2532;52.480;13.354;2024-03-17T15:03:48;11.10;69.10
5027;DHT22;2532;52.480;13.354;2024-03-17T15:06:27;11.00;69.30
5027;DHT22;2532;52.480;13.354;2024-03-17T15:08:54;11.10;69.30
5027;DHT22;2532;52.480;13.354;2024-03-17T15:11:23;11.10;69.00
5027;DHT22;2532;52.480;13.354;2024-03-17T15:13:50;11.20;68.10
5027;DHT22;2532;52.480;13.354;2024-03-17T15:16:17;11.30;68.00
5027;DHT22;2532;52.480;13.354;2024-03-17T15:18:44;11.30;68.00
5027;DHT22;2532;52.480;13.354;2024-03-17T15:21:11;11.30;68.10
5027;DHT22;2532;52.480;13.354;2024-03-17T15:23:38;11.40;68.20
5027;DHT22;2532;52.480;13.354;2024-03-17T15:26:06;11.50;67.90
5027;DHT22;2532;52.480;13.354;2024-03-17T15:28:36;11.60;68.00
5027;DHT22;2532;52.480;13.354;2024-03-17T15:31:04;11.50;67.90
5027;DHT22;2532;52.480;13.354;2024-03-17T15:33:31;11.50;68.10
5027;DHT22;2532;52.480;13.354;2024-03-17T15:36:00;11.40;68.50
5027;DHT22;2532;52.480;13.354;2024-03-17T15:38:29;11.30;68.10
5027;DHT22;2532;52.480;13.354;2024-03-17T15:40:57;11.20;67.80
5027;DHT22;2532;52.480;13.354;2024-03-17T15:43:23;11.20;68.00
5027;DHT22;2532;52.480;13.354;2024-03-17T15:45:51;11.10;68.00
5027;DHT22;2532;52.480;13.354;2024-03-17T15:48:18;11.00;66.90
5027;DHT22;2532;52.480;13.354;2024-03-17T15:50:53;10.80;67.40
5027;DHT22;2532;52.480;13.354;2024-03-17T15:53:20;10.70;68.00
5027;DHT22;2532;52.480;13.354;2024-03-17T15:55:53;10.60;68.10
5027;DHT22;2532;52.480;13.354;2024-03-17T15:58:20;10.50;68.00
5027;DHT22;2532;52.480;13.354;2024-03-17T16:00:47;10.50;68.70
5027;DHT22;2532;52.480;13.354;2024-03-17T16:03:16;10.50;68.90
5027;DHT22;2532;52.480;13.354;2024-03-17T16:05:45;10.50;69.10